Palmyra, New York
Current Conditions -  °F | °C
As of 6:54 AM on Thursday 23 Oct 2014 (Local Time) from KROC Reporting Station
Broken Clouds Broken Clouds  
Wind Chill: 42°   Ceiling: 7000
Heat Index: 47°   Visibility: 10mi
Dew Point: 38°   Wind: 12mph
Humidity: 71%   Direction: 350°N
Pressure: 30.1"   Gusts: NA
Location:  43.06°N, 77.23°W
Report Text: KROC 231054Z 35010KT 10SM FEW029 SCT042 BKN070 08/03 A3010 RMK AO2 SLP199 T00830033
Loading
Personal Weather Stations






























Interactive Weather Map
Tropical Storm Tracking
New forecast layout! Learn more

10-Day Weather Forecast

Advertisements
Track Severe Weather on mobile